Airfield :
LOGIN :

Register | Disclaimer

   EN    FR    IT 

 










Legend :    VFR   Marginal VFR   IFR   Intensive IFR   Very Intensive IFR
Visi :
Ceiling :
>= 8 km
>= 3000ft
5 to 8 km
1000 to 3000 ft
1500m to 5 km
500 to 1000 ft
800 to 1500m
200 to 500 ft
< 800m
< 200 ft
Symbols :   Thunderstorms  Fog  Heavy snow  Heavy precipitations  Wind > 20 kt
SIGMETs :     Misc.  Thunderstorms  Icing  Turbulence  Mountain Waves  Volcanic Ashes






- Airport Elevation : 194 ft
- IATA code : LME


LFRM - Le Mans

CURRENT METAR :
  • 120300Z AUTO 06003KT 030V100 CAVOK 23/18 Q1012

EXPIRED METARs :
  • 120230Z AUTO VRB02KT CAVOK 23/18 Q1012
  • 120200Z AUTO 08005KT 050V110 CAVOK 23/18 Q1012
  • 120130Z AUTO VRB02KT CAVOK 23/18 Q1012
  • 120100Z AUTO 14004KT 140V230 CAVOK 24/18 Q1012
  • 120030Z AUTO 02003KT CAVOK 25/18 Q1013

TAF TAF LFRM
Valid from the 11 at 18:00 until the 12 at 18:00 UTC


111700Z 1118/1218 VRB05KT CAVOK
TEMPO 1118/1121 4500 -SHRA BKN100TCU
PROB30
TEMPO 1118/1121 VRB20G40KT 1200 TSGR SCT012 BKN040CB
TEMPO 1209/1218 VRB15G25KT 3000 TSRA BKN060CB
PROB40
TEMPO 1212/1215 VRB20G40KT 1200 TSGR SCT010 BKN020CB



MET'MAP, your aeronautical weather chart ! - Copyright ORBIFLY December 2007 - Disclaimer

ORBIFLY MET'MAP TEAM :

Programming & Development : Alexandra Zaïnal
Concept & original design : Baudouin d'Aumeries
Assistance for programming : Marc-Olivier Méhu
Technical & hardware support : Manuel Goepfert

Contact : metmap@orbifly.com




SOURCES & CREDITS :

   NOAA